createdAt,value
2023-04-02T00:01:35.746Z,78.30
2023-04-02T00:04:04.897Z,78.07
2023-04-02T00:10:30.384Z,80.77
2023-04-02T00:13:25.589Z,78.91
2023-04-02T00:15:54.584Z,77.28
2023-04-02T00:18:21.726Z,77.71
2023-04-02T00:21:05.884Z,75.00
2023-04-02T00:23:32.614Z,73.72
2023-04-02T00:25:59.370Z,74.81
2023-04-02T00:28:26.466Z,78.04
2023-04-02T00:30:54.617Z,79.64
2023-04-02T00:33:23.040Z,81.53
2023-04-02T00:35:50.434Z,81.19
2023-04-02T00:38:33.012Z,80.22
2023-04-02T00:41:02.492Z,77.88
2023-04-02T00:43:31.545Z,78.54
2023-04-02T00:45:59.657Z,80.38
2023-04-02T00:48:32.285Z,79.87
2023-04-02T00:51:16.050Z,81.40
2023-04-02T00:53:44.140Z,78.85
2023-04-02T00:56:25.668Z,78.04
2023-04-02T00:58:53.405Z,74.45
2023-04-02T01:01:23.867Z,73.40
2023-04-02T01:03:55.427Z,72.25
2023-04-02T01:06:22.347Z,74.00
2023-04-02T01:09:14.161Z,79.23
2023-04-02T01:12:17.492Z,81.83
2023-04-02T01:14:51.520Z,82.44
2023-04-02T01:17:40.147Z,82.92
2023-04-02T01:20:34.600Z,83.14
2023-04-02T01:23:07.380Z,80.51
2023-04-02T01:25:39.772Z,77.31
2023-04-02T01:28:13.107Z,75.93
2023-04-02T01:30:40.077Z,77.03
2023-04-02T01:33:06.810Z,76.46
2023-04-02T01:35:37.694Z,74.48
2023-04-02T01:38:11.877Z,74.27
2023-04-02T01:40:53.127Z,80.71
2023-04-02T01:43:23.246Z,82.45
2023-04-02T01:45:51.169Z,81.98
2023-04-02T01:48:22.365Z,82.92
2023-04-02T01:50:49.382Z,83.21
2023-04-02T01:53:16.904Z,83.37
2023-04-02T01:55:51.734Z,82.80
2023-04-02T01:58:20.624Z,81.72
2023-04-02T02:00:57.377Z,79.17
2023-04-02T02:03:24.180Z,78.93
2023-04-02T02:05:51.016Z,78.14
2023-04-02T02:08:49.909Z,77.03
2023-04-02T02:11:18.840Z,76.25
2023-04-02T02:13:51.028Z,74.07
2023-04-02T02:16:17.834Z,73.75
2023-04-02T02:18:46.457Z,75.55
2023-04-02T02:21:13.172Z,76.35
2023-04-02T02:23:39.926Z,78.43
2023-04-02T02:26:06.774Z,79.63
2023-04-02T02:28:36.049Z,79.17
2023-04-02T02:31:05.564Z,79.52
2023-04-02T02:33:41.131Z,79.08
2023-04-02T02:36:25.035Z,79.59
2023-04-02T02:38:58.198Z,78.83
2023-04-02T02:41:37.589Z,78.50
2023-04-02T02:44:19.730Z,81.18
2023-04-02T02:46:54.689Z,81.25
2023-04-02T02:49:27.313Z,83.68
2023-04-02T02:52:17.125Z,84.02
2023-04-02T02:55:11.033Z,85.17
2023-04-02T02:57:40.868Z,85.52
2023-04-02T03:00:08.380Z,85.19
2023-04-02T03:02:36.238Z,83.97
2023-04-02T03:05:03.305Z,82.79
2023-04-02T03:07:30.054Z,79.00
2023-04-02T03:10:19.280Z,77.97
2023-04-02T03:12:51.762Z,76.01
2023-04-02T03:15:48.004Z,75.85
2023-04-02T03:18:37.931Z,73.45
2023-04-02T03:21:41.992Z,73.39
2023-04-02T03:24:34.804Z,78.02
2023-04-02T03:27:06.459Z,80.66
2023-04-02T03:29:39.677Z,81.58
2023-04-02T03:32:17.537Z,79.88
2023-04-02T03:34:48.353Z,79.83
2023-04-02T03:37:19.147Z,76.08
2023-04-02T03:40:09.333Z,79.65
2023-04-02T03:42:48.656Z,80.34
2023-04-02T03:45:18.125Z,77.79
2023-04-02T03:47:56.373Z,79.45
2023-04-02T03:50:27.950Z,77.90
2023-04-02T03:52:54.662Z,76.39
2023-04-02T03:55:26.901Z,74.22
2023-04-02T03:58:01.706Z,73.02
2023-04-02T04:00:40.888Z,79.52
2023-04-02T04:03:19.178Z,80.23
2023-04-02T04:05:49.535Z,80.66
2023-04-02T04:08:50.493Z,81.22
2023-04-02T04:11:19.326Z,79.29
2023-04-02T04:13:50.309Z,75.34
2023-04-02T04:16:20.884Z,73.10
2023-04-02T04:18:53.281Z,71.51
2023-04-02T04:21:26.744Z,79.00
2023-04-02T04:23:53.474Z,76.56
2023-04-02T04:26:35.923Z,74.78
2023-04-02T04:29:24.884Z,73.74
2023-04-02T04:31:51.725Z,71.96
2023-04-02T04:34:27.174Z,72.67
2023-04-02T04:36:55.257Z,77.90
2023-04-02T04:39:34.431Z,81.03
2023-04-02T04:42:01.274Z,82.11
2023-04-02T04:44:42.168Z,82.69
2023-04-02T04:47:20.414Z,82.11
2023-04-02T04:49:51.595Z,78.78
2023-04-02T04:52:24.049Z,77.86
2023-04-02T04:54:56.125Z,75.39
2023-04-02T04:57:36.396Z,77.29
2023-04-02T05:00:23.137Z,74.07
2023-04-02T05:02:51.718Z,73.32
2023-04-02T05:05:28.965Z,77.13
2023-04-02T05:08:00.615Z,76.24
2023-04-02T05:10:38.834Z,73.75
2023-04-02T05:13:12.556Z,75.38
2023-04-02T05:16:05.250Z,73.32
2023-04-02T05:18:47.582Z,72.01
2023-04-02T05:21:22.293Z,71.95
2023-04-02T05:23:50.858Z,75.03
2023-04-02T05:26:31.917Z,76.71
2023-04-02T05:29:13.314Z,74.41
2023-04-02T05:31:42.850Z,72.06
2023-04-02T05:34:10.429Z,71.17
2023-04-02T05:36:37.128Z,72.93
2023-04-02T05:39:05.138Z,70.61
2023-04-02T05:41:40.520Z,71.77
2023-04-02T05:44:22.213Z,70.39
2023-04-02T05:46:51.424Z,70.89
2023-04-02T05:49:25.227Z,69.96
2023-04-02T05:51:53.366Z,71.27
2023-04-02T05:54:26.904Z,71.11
2023-04-02T05:57:00.745Z,77.09
2023-04-02T05:59:30.055Z,80.99
2023-04-02T06:02:07.312Z,81.88
2023-04-02T06:04:37.013Z,81.72
2023-04-02T06:07:22.011Z,82.38
2023-04-02T06:10:16.652Z,79.96
2023-04-02T06:13:05.263Z,82.69
2023-04-02T06:15:32.765Z,83.66
2023-04-02T06:18:12.343Z,83.60
2023-04-02T06:20:39.236Z,79.86
2023-04-02T06:23:25.063Z,77.48
2023-04-02T06:25:59.585Z,74.03
2023-04-02T06:29:02.233Z,71.43
2023-04-02T06:31:39.470Z,70.83
2023-04-02T06:34:06.656Z,71.21
2023-04-02T06:36:33.620Z,69.51
2023-04-02T06:39:04.978Z,68.27
2023-04-02T06:45:37.452Z,66.08
2023-04-02T06:48:05.574Z,66.10
2023-04-02T06:50:44.586Z,65.76
2023-04-02T06:53:19.009Z,66.98
2023-04-02T06:55:51.468Z,67.45
2023-04-02T06:58:19.805Z,69.76
2023-04-02T07:00:58.250Z,68.79
2023-04-02T07:03:24.882Z,67.82
2023-04-02T07:05:52.123Z,70.61
2023-04-02T07:08:19.013Z,69.38
2023-04-02T07:10:46.792Z,70.96
2023-04-02T07:13:15.229Z,69.72
2023-04-02T07:15:48.037Z,70.64
2023-04-02T07:18:29.426Z,70.53
2023-04-02T07:20:56.205Z,69.20
2023-04-02T07:26:45.836Z,71.92
2023-04-02T07:29:14.803Z,70.45
2023-04-02T07:31:41.633Z,71.97
2023-04-02T07:34:09.687Z,71.53
2023-04-02T07:36:36.503Z,71.70
2023-04-02T07:39:03.633Z,72.42
2023-04-02T07:41:30.326Z,74.48
2023-04-02T07:43:57.487Z,74.71
2023-04-02T07:46:24.535Z,73.63
2023-04-02T07:48:51.448Z,76.04
2023-04-02T07:51:21.256Z,74.64
2023-04-02T07:53:50.901Z,73.86
2023-04-02T07:56:20.002Z,72.55
2023-04-02T07:58:47.613Z,72.23
2023-04-02T08:01:25.026Z,72.18
2023-04-02T08:03:54.582Z,70.38
2023-04-02T08:06:22.588Z,70.36
2023-04-02T08:08:49.766Z,71.75
2023-04-02T08:11:16.616Z,71.31
2023-04-02T08:13:43.581Z,71.67
2023-04-02T08:16:10.776Z,71.32
2023-04-02T08:18:37.945Z,70.61
2023-04-02T08:21:09.337Z,68.80
2023-04-02T08:23:36.537Z,68.58
2023-04-02T08:26:03.310Z,66.46
2023-04-02T08:28:30.470Z,68.12
2023-04-02T08:30:57.166Z,68.75
2023-04-02T08:33:24.294Z,66.57
2023-04-02T08:35:50.991Z,69.24
2023-04-02T08:38:18.880Z,70.46
2023-04-02T08:40:47.651Z,68.77
2023-04-02T08:43:58.870Z,68.66
2023-04-02T08:46:56.458Z,66.32
2023-04-02T08:49:46.215Z,67.44
2023-04-02T08:52:25.266Z,66.78
2023-04-02T08:54:52.086Z,67.73
2023-04-02T08:57:47.916Z,69.07
2023-04-02T09:00:40.133Z,65.78
2023-04-02T09:03:29.279Z,64.32
2023-04-02T09:05:56.109Z,67.01
2023-04-02T09:08:24.349Z,66.53
2023-04-02T09:11:34.325Z,64.97
2023-04-02T09:14:02.637Z,63.21
2023-04-02T09:16:53.130Z,63.14
2023-04-02T09:20:10.280Z,65.77
2023-04-02T09:22:32.640Z,64.84
2023-04-02T09:25:00.556Z,64.75
2023-04-02T09:27:31.966Z,65.20
2023-04-02T09:30:03.564Z,65.27
2023-04-02T09:32:48.286Z,66.31
2023-04-02T09:35:26.567Z,68.01
2023-04-02T09:38:19.386Z,67.15
2023-04-02T09:41:07.399Z,67.90
2023-04-02T09:43:35.548Z,66.31
2023-04-02T09:46:25.314Z,66.58
2023-04-02T09:48:56.636Z,69.21
2023-04-02T09:51:25.723Z,70.27
2023-04-02T09:54:08.797Z,69.48
2023-04-02T09:56:39.444Z,68.37
2023-04-02T09:59:06.145Z,68.21
2023-04-02T10:01:37.576Z,66.45
2023-04-02T10:04:05.615Z,68.49
2023-04-02T10:06:34.573Z,67.57
2023-04-02T10:09:39.978Z,66.87
2023-04-02T10:12:07.649Z,65.55
2023-04-02T10:14:39.144Z,68.98
2023-04-02T10:17:22.530Z,66.38
2023-04-02T10:19:53.764Z,66.71
2023-04-02T10:22:21.313Z,69.69
2023-04-02T10:24:50.584Z,70.63
2023-04-02T10:27:35.702Z,69.41
2023-04-02T10:30:05.485Z,69.33
2023-04-02T10:32:47.395Z,68.73
2023-04-02T10:35:47.720Z,66.61
2023-04-02T10:38:40.289Z,64.75
2023-04-02T10:41:26.964Z,67.42
2023-04-02T10:43:59.283Z,66.58
2023-04-02T10:46:44.315Z,68.31
2023-04-02T10:49:27.837Z,69.53
2023-04-02T10:52:03.924Z,64.93
2023-04-02T10:54:33.917Z,67.13
2023-04-02T10:57:30.800Z,66.04
2023-04-02T11:00:04.279Z,69.96
2023-04-02T11:02:52.812Z,72.41
2023-04-02T11:05:53.551Z,67.05
2023-04-02T11:08:39.721Z,69.43
2023-04-02T11:11:16.342Z,69.14
2023-04-02T11:14:03.455Z,70.69
2023-04-02T11:16:30.287Z,73.52
2023-04-02T11:19:18.263Z,72.27
2023-04-02T11:21:58.547Z,69.24
2023-04-02T11:24:29.583Z,70.17
2023-04-02T11:27:11.671Z,71.46
2023-04-02T11:29:41.713Z,67.63
2023-04-02T11:32:21.431Z,68.05
2023-04-02T11:35:07.261Z,68.39
2023-04-02T11:37:44.396Z,69.30
2023-04-02T11:40:14.210Z,68.19
2023-04-02T11:42:42.016Z,67.83
2023-04-02T11:45:22.671Z,68.64
2023-04-02T11:48:30.355Z,68.33
2023-04-02T11:50:57.285Z,69.83
2023-04-02T11:53:34.040Z,68.46
2023-04-02T11:56:20.624Z,70.01
2023-04-02T11:59:08.811Z,68.85
2023-04-02T12:02:03.748Z,72.53
2023-04-02T12:04:43.974Z,68.31
2023-04-02T12:07:34.989Z,71.03
2023-04-02T12:10:23.470Z,68.54
2023-04-02T12:12:52.906Z,68.53
2023-04-02T12:15:36.330Z,70.38
2023-04-02T12:18:29.575Z,69.49
2023-04-02T12:21:33.429Z,70.11
2023-04-02T12:24:00.366Z,71.13
2023-04-02T12:26:27.015Z,69.86
2023-04-02T12:28:55.119Z,70.89
2023-04-02T12:31:22.114Z,68.43
2023-04-02T12:33:54.407Z,67.78
2023-04-02T12:36:22.465Z,68.63
2023-04-02T12:38:56.852Z,65.14
2023-04-02T12:41:33.340Z,64.38
2023-04-02T12:44:06.503Z,65.93
2023-04-02T12:46:35.185Z,67.41
2023-04-02T12:49:09.520Z,65.51
2023-04-02T12:51:36.435Z,65.03
2023-04-02T12:54:03.279Z,65.13
2023-04-02T12:56:30.226Z,63.21
2023-04-02T12:58:58.308Z,64.77
2023-04-02T13:01:29.401Z,67.34
2023-04-02T13:04:14.795Z,65.79
2023-04-02T13:06:41.837Z,65.29
2023-04-02T13:09:29.586Z,71.25
2023-04-02T13:11:57.213Z,67.64
2023-04-02T13:14:23.914Z,66.29
2023-04-02T13:16:50.909Z,65.27
2023-04-02T13:19:38.393Z,67.12
2023-04-02T13:22:31.188Z,66.34
2023-04-02T13:24:58.903Z,65.82
2023-04-02T13:27:28.406Z,62.96
2023-04-02T13:33:52.109Z,66.06
2023-04-02T13:36:19.157Z,68.92
2023-04-02T13:38:46.108Z,66.49
2023-04-02T13:41:44.903Z,65.51
2023-04-02T13:47:55.568Z,61.48
2023-04-02T13:50:24.839Z,60.02
2023-04-02T13:52:52.127Z,62.48
2023-04-02T13:55:20.150Z,59.89
2023-04-02T13:57:47.474Z,65.33
2023-04-02T14:00:14.559Z,64.66
2023-04-02T14:02:43.150Z,63.39
2023-04-02T14:05:31.628Z,64.09
2023-04-02T14:08:09.393Z,62.09
2023-04-02T14:11:03.124Z,60.49
2023-04-02T14:13:48.630Z,59.97
2023-04-02T14:16:39.977Z,60.78
2023-04-02T14:19:30.997Z,62.77
2023-04-02T14:22:15.893Z,59.58
2023-04-02T14:24:48.596Z,61.15
2023-04-02T14:27:28.629Z,58.25
2023-04-02T14:30:28.777Z,59.51
2023-04-02T14:32:56.330Z,63.97
2023-04-02T14:35:34.858Z,62.10
2023-04-02T14:38:21.182Z,62.50
2023-04-02T14:40:49.632Z,63.00
2023-04-02T14:43:17.317Z,63.18
2023-04-02T14:45:50.234Z,62.68
2023-04-02T14:48:23.549Z,61.79
2023-04-02T14:50:50.659Z,65.69
2023-04-02T14:53:24.221Z,61.82
2023-04-02T14:55:52.275Z,61.58
2023-04-02T14:58:22.749Z,62.65
2023-04-02T15:00:59.021Z,62.95
2023-04-02T15:03:28.735Z,59.82
2023-04-02T15:05:59.977Z,62.39
2023-04-02T15:09:08.960Z,61.75
2023-04-02T15:11:38.225Z,60.33
2023-04-02T15:14:21.956Z,60.87
2023-04-02T15:16:48.693Z,60.51
2023-04-02T15:19:17.203Z,58.90
2023-04-02T15:22:09.977Z,59.30
2023-04-02T15:24:57.526Z,62.55
2023-04-02T15:27:48.769Z,61.18
2023-04-02T15:30:25.000Z,59.69
2023-04-02T15:32:52.139Z,59.81
2023-04-02T15:35:21.298Z,59.61
2023-04-02T15:37:58.823Z,58.38
2023-04-02T15:40:59.515Z,58.53
2023-04-02T15:43:39.881Z,60.24
2023-04-02T15:46:30.144Z,57.17
2023-04-02T15:49:47.209Z,58.87
2023-04-02T15:52:22.999Z,60.34
2023-04-02T15:55:04.002Z,63.30
2023-04-02T15:58:01.575Z,65.14
2023-04-02T16:00:31.199Z,64.36
2023-04-02T16:03:13.084Z,63.46
2023-04-02T16:05:44.130Z,63.07
2023-04-02T16:08:31.407Z,63.45
2023-04-02T16:10:59.698Z,62.67
2023-04-02T16:13:31.972Z,62.26
2023-04-02T16:16:03.483Z,62.92
2023-04-02T16:18:37.373Z,62.63
2023-04-02T16:21:04.238Z,63.35
2023-04-02T16:23:54.727Z,60.97
2023-04-02T16:26:35.199Z,61.84
2023-04-02T16:29:11.241Z,63.33
2023-04-02T16:32:42.700Z,60.77
2023-04-02T16:38:31.530Z,61.99
2023-04-02T16:41:18.120Z,63.50
2023-04-02T16:44:09.589Z,62.23
2023-04-02T16:46:54.511Z,61.81
2023-04-02T16:49:35.742Z,63.88
2023-04-02T16:52:27.775Z,63.05
2023-04-02T16:55:12.765Z,63.60
2023-04-02T16:58:05.125Z,64.88
2023-04-02T17:00:37.725Z,64.50
2023-04-02T17:03:26.287Z,64.38
2023-04-02T17:06:11.320Z,65.07
2023-04-02T17:08:43.116Z,63.71
2023-04-02T17:11:25.008Z,62.42
2023-04-02T17:13:55.995Z,62.62
2023-04-02T17:16:37.058Z,62.54
2023-04-02T17:19:09.535Z,61.90
2023-04-02T17:21:37.853Z,61.86
2023-04-02T17:24:21.077Z,63.41
2023-04-02T17:26:55.020Z,64.58
2023-04-02T17:29:50.608Z,64.71
2023-04-02T17:32:24.382Z,67.26
2023-04-02T17:34:51.942Z,66.94
2023-04-02T17:37:29.815Z,66.01
2023-04-02T17:40:05.566Z,64.63
2023-04-02T17:42:57.666Z,64.36
2023-04-02T17:45:37.495Z,63.53
2023-04-02T17:48:30.016Z,61.51
2023-04-02T17:51:19.786Z,62.41
2023-04-02T17:54:04.748Z,64.54
2023-04-02T17:56:54.224Z,64.09
2023-04-02T17:59:59.401Z,63.83
2023-04-02T18:02:35.020Z,65.13
2023-04-02T18:05:13.512Z,65.29
2023-04-02T18:08:13.017Z,64.96
2023-04-02T18:11:22.329Z,65.44
2023-04-02T18:14:31.296Z,65.16
2023-04-02T18:17:10.913Z,65.11
2023-04-02T18:19:56.775Z,64.51
2023-04-02T18:22:34.253Z,62.82
2023-04-02T18:25:22.801Z,65.26
2023-04-02T18:28:17.543Z,65.48
2023-04-02T18:30:50.247Z,65.21
2023-04-02T18:33:20.736Z,64.70
2023-04-02T18:35:54.248Z,68.16
2023-04-02T18:38:34.046Z,71.48
2023-04-02T18:41:28.732Z,73.86
2023-04-02T18:44:00.312Z,76.03
2023-04-02T18:46:47.381Z,76.71
2023-04-02T18:49:43.173Z,76.39
2023-04-02T18:52:13.034Z,75.84
2023-04-02T18:54:54.282Z,76.25
2023-04-02T18:57:34.477Z,76.25
2023-04-02T19:00:21.730Z,76.10
2023-04-02T19:03:21.021Z,76.31
2023-04-02T19:05:58.224Z,75.19
2023-04-02T19:09:14.213Z,73.92
2023-04-02T19:11:43.897Z,71.42
2023-04-02T19:14:12.308Z,70.11
2023-04-02T19:17:17.219Z,70.05
2023-04-02T19:19:51.713Z,75.55
2023-04-02T19:22:46.177Z,77.67
2023-04-02T19:25:35.193Z,78.31
2023-04-02T19:28:06.041Z,77.93
2023-04-02T19:31:08.701Z,73.13
2023-04-02T19:33:48.934Z,73.13
2023-04-02T19:37:05.108Z,78.51
2023-04-02T19:40:03.368Z,79.61
2023-04-02T19:42:43.533Z,80.25
2023-04-02T19:45:56.066Z,80.45
2023-04-02T19:48:26.003Z,79.44
2023-04-02T19:50:53.040Z,79.33
2023-04-02T19:53:19.772Z,78.95
2023-04-02T19:55:49.272Z,78.25
2023-04-02T19:58:31.848Z,74.32
2023-04-02T20:00:59.605Z,75.15
2023-04-02T20:03:26.830Z,77.87
2023-04-02T20:05:53.522Z,76.76
2023-04-02T20:08:20.364Z,74.27
2023-04-02T20:10:47.155Z,71.80
2023-04-02T20:13:14.027Z,71.99
2023-04-02T20:15:42.015Z,75.20
2023-04-02T20:18:08.889Z,77.66
2023-04-02T20:20:35.807Z,78.42
2023-04-02T20:23:03.007Z,75.40
2023-04-02T20:25:30.160Z,77.33
2023-04-02T20:27:56.981Z,78.30
2023-04-02T20:30:23.836Z,78.73
2023-04-02T20:32:51.022Z,79.91
2023-04-02T20:35:17.846Z,79.39
2023-04-02T20:37:44.786Z,79.29
2023-04-02T20:40:11.637Z,78.35
2023-04-02T20:42:38.355Z,77.44
2023-04-02T20:45:05.529Z,77.21
2023-04-02T20:47:32.354Z,78.53
2023-04-02T20:49:59.229Z,79.88
2023-04-02T20:52:26.329Z,80.09
2023-04-02T20:54:53.050Z,79.50
2023-04-02T20:57:19.789Z,78.65
2023-04-02T20:59:50.515Z,77.77
2023-04-02T21:02:17.222Z,76.46
2023-04-02T21:04:45.035Z,77.59
2023-04-02T21:07:12.095Z,78.34
2023-04-02T21:09:39.136Z,76.14
2023-04-02T21:12:06.200Z,77.15
2023-04-02T21:14:33.940Z,75.73
2023-04-02T21:17:01.221Z,74.66
2023-04-02T21:19:27.970Z,75.99
2023-04-02T21:21:54.739Z,76.70
2023-04-02T21:24:22.280Z,77.97
2023-04-02T21:26:49.949Z,75.63
2023-04-02T21:29:17.148Z,73.88
2023-04-02T21:31:43.897Z,74.26
2023-04-02T21:34:13.923Z,74.37
2023-04-02T21:36:42.310Z,73.88
2023-04-02T21:39:10.725Z,71.23
2023-04-02T21:41:42.432Z,73.92
2023-04-02T21:44:12.476Z,71.91
2023-04-02T21:46:39.459Z,70.03
2023-04-02T21:49:06.658Z,68.94
2023-04-02T21:51:33.937Z,71.99
2023-04-02T21:54:02.049Z,76.88
2023-04-02T21:56:36.755Z,74.39
2023-04-02T21:59:04.242Z,77.13
2023-04-02T22:01:33.122Z,77.70
2023-04-02T22:04:01.425Z,77.13
2023-04-02T22:06:29.626Z,78.05
2023-04-02T22:09:01.125Z,78.71
2023-04-02T22:11:29.970Z,78.96
2023-04-02T22:13:58.492Z,79.62
2023-04-02T22:16:26.583Z,80.50
2023-04-02T22:18:54.077Z,80.37
2023-04-02T22:21:21.132Z,80.18
2023-04-02T22:23:50.273Z,80.80
2023-04-02T22:26:17.644Z,81.62
2023-04-02T22:28:44.520Z,80.59
2023-04-02T22:31:18.610Z,80.29
2023-04-02T22:33:45.718Z,80.55
2023-04-02T22:36:12.887Z,81.42
2023-04-02T22:38:39.690Z,81.76
2023-04-02T22:41:08.741Z,79.95
2023-04-02T22:43:36.112Z,79.49
2023-04-02T22:46:03.980Z,78.98
2023-04-02T22:48:30.730Z,80.24
2023-04-02T22:50:59.138Z,79.24
2023-04-02T22:53:26.005Z,78.87
2023-04-02T22:55:52.820Z,77.62
2023-04-02T22:58:20.352Z,75.98
2023-04-02T23:00:47.249Z,75.88
2023-04-02T23:03:13.934Z,73.97
2023-04-02T23:05:40.759Z,75.37
2023-04-02T23:08:07.703Z,73.44
2023-04-02T23:10:34.549Z,72.99
2023-04-02T23:13:01.522Z,75.01
2023-04-02T23:15:28.605Z,74.05
2023-04-02T23:17:56.013Z,73.05
2023-04-02T23:20:22.709Z,72.59
2023-04-02T23:22:49.391Z,71.05
2023-04-02T23:25:16.203Z,72.82
2023-04-02T23:27:42.910Z,72.05
2023-04-02T23:30:09.664Z,74.70
2023-04-02T23:32:37.291Z,75.18
2023-04-02T23:35:05.058Z,74.99
2023-04-02T23:37:31.855Z,74.57
2023-04-02T23:39:58.563Z,73.67
2023-04-02T23:42:26.562Z,73.19
2023-04-02T23:44:53.966Z,74.46
2023-04-02T23:47:20.709Z,76.91
2023-04-02T23:49:47.443Z,77.50
2023-04-02T23:52:16.029Z,77.36
2023-04-02T23:54:45.714Z,78.21
2023-04-02T23:57:12.841Z,77.72
2023-04-02T23:59:39.581Z,78.85
